createdAt,value
2022-09-20T00:01:28.209Z,94314.00
2022-09-20T00:04:00.089Z,94313.22
2022-09-20T00:06:29.131Z,94305.44
2022-09-20T00:08:56.664Z,94304.13
2022-09-20T00:11:26.163Z,94308.66
2022-09-20T00:13:55.995Z,94314.50
2022-09-20T00:16:31.919Z,94318.72
2022-09-20T00:19:00.558Z,94297.34
2022-09-20T00:21:29.095Z,94306.47
2022-09-20T00:23:57.493Z,94303.16
2022-09-20T00:26:27.141Z,94306.75
2022-09-20T00:28:53.937Z,94305.28
2022-09-20T00:31:22.655Z,94298.59
2022-09-20T00:34:08.046Z,94274.91
2022-09-20T00:36:34.448Z,94288.19
2022-09-20T00:39:02.580Z,94307.69
2022-09-20T00:41:31.683Z,94304.75
2022-09-20T00:43:58.991Z,94287.53
2022-09-20T00:46:36.760Z,94289.47
2022-09-20T00:49:14.395Z,94290.91
2022-09-20T00:51:45.705Z,94255.69
2022-09-20T00:54:20.272Z,94254.06
2022-09-20T00:56:47.318Z,94269.44
2022-09-20T00:59:23.385Z,94283.53
2022-09-20T01:01:56.351Z,94261.13
2022-09-20T01:04:25.373Z,94258.69
2022-09-20T01:06:55.661Z,94276.69
2022-09-20T01:09:22.093Z,94273.22
2022-09-20T01:11:50.969Z,94275.25
2022-09-20T01:14:19.667Z,94264.00
2022-09-20T01:16:46.147Z,94255.69
2022-09-20T01:19:38.707Z,94279.75
2022-09-20T01:22:17.522Z,94269.59
2022-09-20T01:25:07.310Z,94279.13
2022-09-20T01:27:53.857Z,94259.09
2022-09-20T01:30:23.649Z,94284.91
2022-09-20T01:33:18.698Z,94286.03
2022-09-20T01:35:49.991Z,94278.88
2022-09-20T01:38:25.430Z,94281.75
2022-09-20T01:41:11.024Z,94271.41
2022-09-20T01:43:51.905Z,94259.59
2022-09-20T01:46:38.156Z,94273.13
2022-09-20T01:49:44.089Z,94255.19
2022-09-20T01:52:39.563Z,94278.38
2022-09-20T01:55:37.076Z,94275.44
2022-09-20T01:58:12.428Z,94241.28
2022-09-20T02:01:19.629Z,94271.16
2022-09-20T02:04:12.283Z,94265.31
2022-09-20T02:06:50.857Z,94271.44
2022-09-20T02:09:58.420Z,94250.63
2022-09-20T02:12:52.643Z,94264.19
2022-09-20T02:16:02.686Z,94261.75
2022-09-20T02:19:06.889Z,94270.25
2022-09-20T02:21:51.986Z,94272.19
2022-09-20T02:24:44.196Z,94273.81
2022-09-20T02:28:03.333Z,94267.28
2022-09-20T02:31:01.421Z,94268.56
2022-09-20T02:33:52.915Z,94279.34
2022-09-20T02:36:47.440Z,94251.19
2022-09-20T02:39:43.201Z,94275.88
2022-09-20T02:42:22.457Z,94264.19
2022-09-20T02:45:08.154Z,94267.13
2022-09-20T02:47:43.753Z,94282.06
2022-09-20T02:50:35.097Z,94276.16
2022-09-20T02:53:10.547Z,94272.88
2022-09-20T02:55:54.228Z,94266.41
2022-09-20T02:58:42.504Z,94279.13
2022-09-20T03:01:24.335Z,94279.69
2022-09-20T03:04:13.593Z,94281.91
2022-09-20T03:07:04.267Z,94275.97
2022-09-20T03:09:37.433Z,94282.75
2022-09-20T03:12:26.311Z,94294.72
2022-09-20T03:15:26.954Z,94268.72
2022-09-20T03:18:15.483Z,94291.16
2022-09-20T03:21:15.564Z,94290.78
2022-09-20T03:23:44.872Z,94296.63
2022-09-20T03:26:33.108Z,94298.50
2022-09-20T03:29:27.077Z,94267.06
2022-09-20T03:32:05.202Z,94302.94
2022-09-20T03:35:19.551Z,94297.78
2022-09-20T03:38:20.631Z,94301.59
2022-09-20T03:41:04.352Z,94276.72
2022-09-20T03:43:49.844Z,94286.19
2022-09-20T03:46:27.100Z,94300.56
2022-09-20T03:49:16.729Z,94300.84
2022-09-20T03:52:20.888Z,94301.13
2022-09-20T03:54:54.489Z,94275.91
2022-09-20T03:57:39.691Z,94302.50
2022-09-20T04:00:22.702Z,94282.19
2022-09-20T04:02:58.135Z,94299.00
2022-09-20T04:05:37.474Z,94280.28
2022-09-20T04:08:40.000Z,94296.78
2022-09-20T04:11:37.587Z,94305.78
2022-09-20T04:14:33.057Z,94292.50
2022-09-20T04:17:37.143Z,94289.22
2022-09-20T04:20:32.017Z,94295.75
2022-09-20T04:23:03.668Z,94272.59
2022-09-20T04:25:43.876Z,94271.88
2022-09-20T04:28:49.554Z,94294.94
2022-09-20T04:31:57.030Z,94292.50
2022-09-20T04:35:00.551Z,94292.50
2022-09-20T04:37:33.386Z,94252.13
2022-09-20T04:40:23.034Z,94275.28
2022-09-20T04:43:12.067Z,94286.09
2022-09-20T04:46:04.676Z,94282.84
2022-09-20T04:49:10.169Z,94288.59
2022-09-20T04:51:58.072Z,94286.19
2022-09-20T04:54:30.534Z,94283.19
2022-09-20T04:57:18.093Z,94284.50
2022-09-20T05:00:16.707Z,94290.50
2022-09-20T05:03:01.817Z,94300.06
2022-09-20T05:05:35.738Z,94294.63
2022-09-20T05:08:16.415Z,94142.03
2022-09-20T05:11:10.807Z,94290.50
2022-09-20T05:14:22.835Z,94268.88
2022-09-20T05:17:11.649Z,94306.56
2022-09-20T05:20:15.817Z,94315.00
2022-09-20T05:23:11.284Z,94275.28
2022-09-20T05:25:56.482Z,94321.31
2022-09-20T05:28:28.672Z,94301.97
2022-09-20T05:31:13.601Z,94320.94
2022-09-20T05:34:14.490Z,94318.34
2022-09-20T05:36:50.436Z,94326.38
2022-09-20T05:39:24.612Z,94305.22
2022-09-20T05:42:04.674Z,94291.25
2022-09-20T05:44:40.142Z,94320.94
2022-09-20T05:47:31.680Z,94289.75
2022-09-20T05:50:35.500Z,94318.16
2022-09-20T05:53:37.586Z,94315.91
2022-09-20T05:56:36.245Z,94314.81
2022-09-20T05:59:32.275Z,94328.59
2022-09-20T06:02:37.414Z,94325.81
2022-09-20T06:05:11.639Z,94323.59
2022-09-20T06:08:03.630Z,94330.47
2022-09-20T06:10:50.256Z,94316.19
2022-09-20T06:13:37.896Z,94332.16
2022-09-20T06:16:10.920Z,94329.34
2022-09-20T06:18:50.163Z,94331.34
2022-09-20T06:21:35.473Z,94326.25
2022-09-20T06:24:03.119Z,94309.06
2022-09-20T06:26:36.769Z,94329.97
2022-09-20T06:29:07.169Z,94320.56
2022-09-20T06:31:33.660Z,94312.34
2022-09-20T06:34:09.972Z,94319.44
2022-09-20T06:36:56.088Z,94328.84
2022-09-20T06:40:06.098Z,94324.56
2022-09-20T06:42:32.837Z,94312.53
2022-09-20T06:44:59.236Z,94296.03
2022-09-20T06:47:27.185Z,94310.16
2022-09-20T06:49:53.598Z,94318.50
2022-09-20T06:52:22.740Z,94327.63
2022-09-20T06:54:55.436Z,94315.34
2022-09-20T06:57:33.721Z,94323.63
2022-09-20T07:00:00.223Z,94289.09
2022-09-20T07:02:27.215Z,94309.94
2022-09-20T07:04:55.307Z,94322.34
2022-09-20T07:07:21.734Z,94309.06
2022-09-20T07:09:48.117Z,94301.91
2022-09-20T07:12:14.530Z,94316.06
2022-09-20T07:14:41.599Z,94303.88
2022-09-20T07:17:08.021Z,94306.78
2022-09-20T07:19:34.923Z,94306.13
2022-09-20T07:22:01.304Z,94308.72
2022-09-20T07:24:29.317Z,94327.88
2022-09-20T07:26:58.629Z,94334.03
2022-09-20T07:29:25.710Z,94293.16
2022-09-20T07:31:52.253Z,94318.47
2022-09-20T07:34:20.436Z,94320.75
2022-09-20T07:36:51.361Z,94327.00
2022-09-20T07:39:18.172Z,94339.78
2022-09-20T07:41:48.352Z,94322.84
2022-09-20T07:44:22.066Z,94342.28
2022-09-20T07:46:52.750Z,94337.72
2022-09-20T07:49:19.549Z,94338.97
2022-09-20T07:51:46.054Z,94333.22
2022-09-20T07:54:12.589Z,94333.25
2022-09-20T07:56:39.184Z,94336.38
2022-09-20T07:59:06.210Z,94323.63
2022-09-20T08:01:33.078Z,94323.63
2022-09-20T08:03:59.573Z,94312.50
2022-09-20T08:06:26.802Z,94348.72
2022-09-20T08:08:54.410Z,94336.72
2022-09-20T08:11:28.786Z,94340.28
2022-09-20T08:14:06.124Z,94337.31
2022-09-20T08:16:41.831Z,94339.09
2022-09-20T08:19:09.314Z,94359.63
2022-09-20T08:21:37.990Z,94365.66
2022-09-20T08:24:04.599Z,94364.31
2022-09-20T08:26:31.685Z,94368.63
2022-09-20T08:28:59.758Z,94365.75
2022-09-20T08:31:29.147Z,94350.53
2022-09-20T08:33:55.738Z,94344.50
2022-09-20T08:36:25.376Z,94343.31
2022-09-20T08:41:47.750Z,94359.81
2022-09-20T08:44:17.149Z,94359.06
2022-09-20T08:46:49.955Z,94347.38
2022-09-20T08:49:28.083Z,94362.03
2022-09-20T08:51:58.029Z,94296.47
2022-09-20T08:54:32.686Z,94335.97
2022-09-20T08:57:05.391Z,94346.69
2022-09-20T08:59:32.606Z,94338.38
2022-09-20T09:01:59.924Z,94299.66
2022-09-20T09:04:35.083Z,94347.44
2022-09-20T09:07:02.638Z,94331.06
2022-09-20T09:09:30.276Z,94303.78
2022-09-20T09:11:58.741Z,94343.31
2022-09-20T09:14:43.820Z,94360.84
2022-09-20T09:17:12.856Z,94357.16
2022-09-20T09:20:14.487Z,94359.38
2022-09-20T09:22:44.012Z,94350.25
2022-09-20T09:25:19.384Z,94369.34
2022-09-20T09:27:58.335Z,94354.56
2022-09-20T09:30:30.570Z,94355.91
2022-09-20T09:33:28.195Z,94340.09
2022-09-20T09:36:03.688Z,94360.88
2022-09-20T09:38:32.703Z,94348.34
2022-09-20T09:41:01.752Z,94354.84
2022-09-20T09:43:31.382Z,94328.00
2022-09-20T09:46:23.599Z,94336.22
2022-09-20T09:49:11.587Z,94359.69
2022-09-20T09:51:42.337Z,94351.47
2022-09-20T09:54:17.739Z,94363.22
2022-09-20T09:56:57.386Z,94375.69
2022-09-20T09:59:41.227Z,94367.31
2022-09-20T10:02:08.525Z,94364.97
2022-09-20T10:05:13.312Z,94365.50
2022-09-20T10:08:26.199Z,94377.34
2022-09-20T10:11:22.992Z,94369.00
2022-09-20T10:14:22.569Z,94338.84
2022-09-20T10:17:25.180Z,94340.50
2022-09-20T10:20:08.863Z,94365.63
2022-09-20T10:23:06.597Z,94357.00
2022-09-20T10:25:48.526Z,94352.19
2022-09-20T10:28:35.849Z,94363.22
2022-09-20T10:31:34.294Z,94345.59
2022-09-20T10:34:38.439Z,94373.22
2022-09-20T10:37:17.703Z,94328.94
2022-09-20T10:39:48.163Z,94341.31
2022-09-20T10:42:52.075Z,94353.31
2022-09-20T10:46:08.820Z,94332.44
2022-09-20T10:48:33.289Z,94343.88
2022-09-20T10:51:12.067Z,94339.13
2022-09-20T10:54:16.239Z,94347.56
2022-09-20T10:56:52.901Z,94328.31
2022-09-20T10:59:42.208Z,94331.94
2022-09-20T11:02:30.098Z,94342.38
2022-09-20T11:05:21.377Z,94340.41
2022-09-20T11:08:06.867Z,94318.56
2022-09-20T11:10:42.971Z,94331.06
2022-09-20T11:13:24.500Z,94348.00
2022-09-20T11:16:14.101Z,94322.97
2022-09-20T11:18:50.610Z,94351.28
2022-09-20T11:21:38.768Z,94352.78
2022-09-20T11:24:17.788Z,94325.53
2022-09-20T11:26:51.581Z,94350.00
2022-09-20T11:29:28.672Z,94341.28
2022-09-20T11:32:03.337Z,94348.63
2022-09-20T11:34:38.413Z,94356.22
2022-09-20T11:37:04.812Z,94356.69
2022-09-20T11:39:52.823Z,94358.41
2022-09-20T11:42:25.636Z,94354.19
2022-09-20T11:44:53.754Z,94333.78
2022-09-20T11:47:49.919Z,94338.75
2022-09-20T11:50:43.087Z,94358.94
2022-09-20T11:53:26.692Z,94335.16
2022-09-20T11:56:12.772Z,94328.66
2022-09-20T11:58:48.219Z,94335.13
2022-09-20T12:01:17.267Z,94344.03
2022-09-20T12:03:57.024Z,94325.50
2022-09-20T12:06:33.290Z,94341.16
2022-09-20T12:09:04.396Z,94317.03
2022-09-20T12:11:38.710Z,94341.22
2022-09-20T12:14:15.735Z,94330.34
2022-09-20T12:16:44.906Z,94340.41
2022-09-20T12:19:37.034Z,94347.72
2022-09-20T12:22:04.408Z,94345.44
2022-09-20T12:24:34.847Z,94321.41
2022-09-20T12:27:32.543Z,94336.81
2022-09-20T12:30:20.119Z,94310.19
2022-09-20T12:32:53.127Z,94246.44
2022-09-20T12:35:58.211Z,94318.22
2022-09-20T12:38:31.159Z,94300.88
2022-09-20T12:41:08.544Z,94322.44
2022-09-20T12:43:46.652Z,94303.91
2022-09-20T12:46:24.220Z,94314.63
2022-09-20T12:48:51.058Z,94299.91
2022-09-20T12:51:38.283Z,94301.31
2022-09-20T12:54:08.887Z,94296.06
2022-09-20T12:56:38.756Z,94315.81
2022-09-20T12:59:18.236Z,94303.28
2022-09-20T13:01:46.015Z,94293.19
2022-09-20T13:04:51.444Z,94316.94
2022-09-20T13:07:38.893Z,94313.31
2022-09-20T13:10:29.252Z,94306.91
2022-09-20T13:13:23.115Z,94310.53
2022-09-20T13:15:53.448Z,94294.47
2022-09-20T13:18:22.941Z,94289.03
2022-09-20T13:20:51.747Z,94300.31
2022-09-20T13:23:23.505Z,94308.19
2022-09-20T13:25:50.448Z,94309.81
2022-09-20T13:28:38.368Z,94296.88
2022-09-20T13:31:27.826Z,94319.09
2022-09-20T13:33:54.367Z,94302.34
2022-09-20T13:36:30.145Z,94319.09
2022-09-20T13:38:58.400Z,94263.38
2022-09-20T13:41:29.098Z,94292.03
2022-09-20T13:43:55.929Z,94290.38
2022-09-20T13:46:25.327Z,94316.63
2022-09-20T13:49:09.160Z,94290.00
2022-09-20T13:51:35.873Z,94307.72
2022-09-20T13:54:28.844Z,94317.47
2022-09-20T13:57:05.052Z,94287.56
2022-09-20T13:59:40.691Z,94316.00
2022-09-20T14:02:31.356Z,94310.97
2022-09-20T14:05:04.471Z,94315.03
2022-09-20T14:07:32.298Z,94266.00
2022-09-20T14:09:59.097Z,94275.06
2022-09-20T14:12:27.583Z,94299.13
2022-09-20T14:14:55.034Z,94256.91
2022-09-20T14:17:24.618Z,94248.03
2022-09-20T14:19:54.685Z,94083.16
2022-09-20T14:22:28.758Z,94326.34
2022-09-20T14:25:18.720Z,94206.09
2022-09-20T14:27:45.256Z,94251.06
2022-09-20T14:30:35.369Z,94226.25
2022-09-20T14:33:05.386Z,94313.44
2022-09-20T14:35:32.020Z,94236.38
2022-09-20T14:38:10.248Z,94279.53
2022-09-20T14:40:46.021Z,94276.31
2022-09-20T14:43:34.626Z,94277.88
2022-09-20T14:46:09.446Z,94274.56
2022-09-20T14:48:38.419Z,94323.00
2022-09-20T14:51:22.401Z,94314.50
2022-09-20T14:54:12.149Z,94279.81
2022-09-20T14:56:47.957Z,94296.47
2022-09-20T14:59:15.352Z,94311.19
2022-09-20T15:01:55.536Z,94283.19
2022-09-20T15:04:23.925Z,94311.41
2022-09-20T15:06:53.109Z,94279.91
2022-09-20T15:09:21.742Z,94302.53
2022-09-20T15:12:12.428Z,94314.25
2022-09-20T15:14:44.277Z,94296.44
2022-09-20T15:17:21.842Z,94322.31
2022-09-20T15:19:50.240Z,94305.31
2022-09-20T15:22:17.670Z,94310.56
2022-09-20T15:24:44.705Z,94308.16
2022-09-20T15:27:14.435Z,94303.69
2022-09-20T15:29:41.119Z,94322.31
2022-09-20T15:32:10.387Z,94308.59
2022-09-20T15:34:38.247Z,94326.72
2022-09-20T15:37:04.839Z,94320.84
2022-09-20T15:39:31.227Z,94330.69
2022-09-20T15:41:57.759Z,94327.84
2022-09-20T15:44:24.132Z,94344.44
2022-09-20T15:46:51.771Z,94307.75
2022-09-20T15:49:18.168Z,94303.34
2022-09-20T15:51:45.217Z,94320.66
2022-09-20T15:54:14.245Z,94346.47
2022-09-20T15:56:41.356Z,94332.28
2022-09-20T15:59:10.715Z,94321.69
2022-09-20T16:01:42.763Z,94342.66
2022-09-20T16:04:12.150Z,94357.53
2022-09-20T16:06:42.104Z,94356.69
2022-09-20T16:09:08.862Z,94323.56
2022-09-20T16:11:36.076Z,94338.13
2022-09-20T16:14:03.542Z,94355.91
2022-09-20T16:16:36.117Z,94352.28
2022-09-20T16:19:19.956Z,94338.84
2022-09-20T16:21:57.762Z,94354.50
2022-09-20T16:24:27.771Z,94349.47
2022-09-20T16:26:54.509Z,94354.28
2022-09-20T16:29:22.128Z,94341.91
2022-09-20T16:31:50.244Z,94361.22
2022-09-20T16:34:29.581Z,94356.75
2022-09-20T16:36:58.633Z,94338.50
2022-09-20T16:39:27.732Z,94355.81
2022-09-20T16:42:03.522Z,94345.09
2022-09-20T16:44:33.025Z,94351.56
2022-09-20T16:47:02.535Z,94353.44
2022-09-20T16:49:29.800Z,94341.63
2022-09-20T16:51:58.243Z,94345.66
2022-09-20T16:54:29.761Z,94358.91
2022-09-20T16:56:59.544Z,94343.88
2022-09-20T16:59:26.071Z,94342.00
2022-09-20T17:01:52.618Z,94367.22
2022-09-20T17:04:20.887Z,94371.44
2022-09-20T17:06:48.735Z,94382.25
2022-09-20T17:09:16.482Z,94376.06
2022-09-20T17:11:47.049Z,94390.56
2022-09-20T17:14:17.104Z,94356.72
2022-09-20T17:16:47.879Z,94393.00
2022-09-20T17:19:16.554Z,94386.53
2022-09-20T17:21:48.952Z,94400.28
2022-09-20T17:24:20.007Z,94380.53
2022-09-20T17:26:46.942Z,94362.81
2022-09-20T17:29:16.918Z,94386.41
2022-09-20T17:31:54.078Z,94388.19
2022-09-20T17:34:23.804Z,94412.88
2022-09-20T17:36:50.779Z,94404.75
2022-09-20T17:39:18.132Z,94412.41
2022-09-20T17:41:49.116Z,94414.88
2022-09-20T17:44:16.252Z,94404.25
2022-09-20T17:46:47.891Z,94401.28
2022-09-20T17:49:18.245Z,94406.38
2022-09-20T17:51:55.981Z,94410.09
2022-09-20T17:54:24.516Z,94435.53
2022-09-20T17:56:55.535Z,94430.66
2022-09-20T17:59:22.013Z,94408.03
2022-09-20T18:01:51.170Z,94405.69
2022-09-20T18:04:18.434Z,94414.84
2022-09-20T18:06:47.470Z,94413.75
2022-09-20T18:09:16.468Z,94431.41
2022-09-20T18:11:46.383Z,94429.69
2022-09-20T18:14:13.438Z,94436.25
2022-09-20T18:16:44.244Z,94423.41
2022-09-20T18:19:12.114Z,94417.28
2022-09-20T18:21:40.747Z,94446.53
2022-09-20T18:24:09.236Z,94452.63
2022-09-20T18:26:36.827Z,94438.69
2022-09-20T18:29:12.469Z,94455.84
2022-09-20T18:31:59.609Z,94428.97
2022-09-20T18:34:31.159Z,94460.97
2022-09-20T18:36:59.796Z,94458.44
2022-09-20T18:39:28.434Z,94466.16
2022-09-20T18:41:57.264Z,94451.13
2022-09-20T18:44:24.253Z,94449.09
2022-09-20T18:46:54.177Z,94470.97
2022-09-20T18:49:21.642Z,94461.03
2022-09-20T18:51:49.261Z,94471.50
2022-09-20T18:54:18.899Z,94430.28
2022-09-20T18:56:47.317Z,94475.84
2022-09-20T18:59:15.277Z,94459.84
2022-09-20T19:01:53.873Z,94484.72
2022-09-20T19:04:57.967Z,94491.91
2022-09-20T19:07:27.239Z,94493.19
2022-09-20T19:10:03.626Z,94492.25
2022-09-20T19:12:51.461Z,94495.66
2022-09-20T19:15:52.345Z,94500.69
2022-09-20T19:18:40.783Z,94503.28
2022-09-20T19:21:41.116Z,94511.06
2022-09-20T19:24:36.378Z,94481.75
2022-09-20T19:27:06.199Z,94487.13
2022-09-20T19:29:35.380Z,94506.44
2022-09-20T19:32:05.417Z,94484.50
2022-09-20T19:34:33.404Z,94487.56
2022-09-20T19:37:30.229Z,94523.97
2022-09-20T19:40:17.533Z,94499.56
2022-09-20T19:43:17.582Z,94533.06
2022-09-20T19:46:02.073Z,94532.25
2022-09-20T19:48:38.771Z,94533.72
2022-09-20T19:51:11.190Z,94521.13
2022-09-20T19:53:39.350Z,94528.28
2022-09-20T19:56:21.759Z,94546.16
2022-09-20T19:58:53.117Z,94537.69
2022-09-20T20:01:24.476Z,94524.94
2022-09-20T20:03:54.782Z,94527.88
2022-09-20T20:06:38.634Z,94544.84
2022-09-20T20:09:25.756Z,94546.78
2022-09-20T20:11:55.793Z,94559.78
2022-09-20T20:14:43.171Z,94540.31
2022-09-20T20:17:47.880Z,94550.75
2022-09-20T20:20:34.899Z,94548.78
2022-09-20T20:23:24.434Z,94535.06
2022-09-20T20:26:16.458Z,94559.78
2022-09-20T20:28:45.559Z,94544.50
2022-09-20T20:31:12.689Z,94521.06
2022-09-20T20:33:39.842Z,94543.56
2022-09-20T20:36:11.843Z,94566.19
2022-09-20T20:38:40.421Z,94532.50
2022-09-20T20:41:13.681Z,94541.63
2022-09-20T20:43:42.991Z,94563.03
2022-09-20T20:46:14.512Z,94570.81
2022-09-20T20:48:42.881Z,94546.41
2022-09-20T20:51:12.025Z,94539.59
2022-09-20T20:53:52.061Z,94565.03
2022-09-20T20:56:31.804Z,94527.25
2022-09-20T20:59:11.918Z,94566.28
2022-09-20T21:01:45.854Z,94572.00
2022-09-20T21:04:15.805Z,94551.03
2022-09-20T21:06:47.955Z,94554.63
2022-09-20T21:09:14.588Z,94553.31
2022-09-20T21:11:44.375Z,94570.84
2022-09-20T21:14:15.954Z,94550.69
2022-09-20T21:16:46.077Z,94574.78
2022-09-20T21:19:15.787Z,94564.69
2022-09-20T21:21:48.077Z,94571.16
2022-09-20T21:24:17.551Z,94572.16
2022-09-20T21:26:46.404Z,94536.69
2022-09-20T21:29:17.031Z,94567.28
2022-09-20T21:31:45.856Z,94569.59
2022-09-20T21:34:15.425Z,94567.47
2022-09-20T21:36:42.949Z,94575.72
2022-09-20T21:39:11.756Z,94539.00
2022-09-20T21:41:39.584Z,94553.66
2022-09-20T21:44:07.793Z,94577.41
2022-09-20T21:46:40.404Z,94572.50
2022-09-20T21:49:14.317Z,94566.34
2022-09-20T21:51:45.335Z,94532.19
2022-09-20T21:54:15.010Z,94462.59
2022-09-20T21:56:41.911Z,94530.56
2022-09-20T21:59:09.556Z,94566.81
2022-09-20T22:01:38.391Z,94572.81
2022-09-20T22:04:07.809Z,94567.59
2022-09-20T22:06:36.907Z,94569.09
2022-09-20T22:09:09.128Z,94549.41
2022-09-20T22:11:42.122Z,94537.69
2022-09-20T22:14:09.935Z,94570.53
2022-09-20T22:16:43.957Z,94566.66
2022-09-20T22:19:16.130Z,94570.56
2022-09-20T22:21:44.990Z,94569.59
2022-09-20T22:24:17.469Z,94555.25
2022-09-20T22:26:49.025Z,94564.06
2022-09-20T22:29:16.690Z,94555.63
2022-09-20T22:31:45.795Z,94554.16
2022-09-20T22:34:17.834Z,94550.06
2022-09-20T22:36:47.128Z,94551.72
2022-09-20T22:39:17.756Z,94530.28
2022-09-20T22:41:44.971Z,94538.06
2022-09-20T22:44:13.107Z,94540.28
2022-09-20T22:46:40.087Z,94520.56
2022-09-20T22:49:09.674Z,94545.19
2022-09-20T22:51:36.835Z,94541.00
2022-09-20T22:54:11.218Z,94552.97
2022-09-20T22:56:43.820Z,94522.03
2022-09-20T22:59:19.776Z,94549.38
2022-09-20T23:01:47.886Z,94506.09
2022-09-20T23:04:20.311Z,94549.69
2022-09-20T23:06:49.422Z,94527.19
2022-09-20T23:09:18.174Z,94546.06
2022-09-20T23:11:45.671Z,94539.22
2022-09-20T23:14:15.162Z,94543.09
2022-09-20T23:16:42.610Z,94519.97
2022-09-20T23:19:12.842Z,94535.22
2022-09-20T23:21:42.863Z,94516.34
2022-09-20T23:24:11.656Z,94498.03
2022-09-20T23:26:40.386Z,94534.47
2022-09-20T23:29:15.882Z,94512.00
2022-09-20T23:31:46.130Z,94507.06
2022-09-20T23:34:14.986Z,94534.06
2022-09-20T23:36:42.676Z,94492.47
2022-09-20T23:39:10.732Z,94536.81
2022-09-20T23:41:41.817Z,94536.09
2022-09-20T23:44:09.997Z,94537.50
2022-09-20T23:46:36.847Z,94497.22
2022-09-20T23:49:03.766Z,94520.38
2022-09-20T23:51:30.889Z,94499.75
2022-09-20T23:53:57.586Z,94508.75
2022-09-20T23:56:26.955Z,94536.44
2022-09-20T23:58:55.817Z,94494.72
